Time;durP1;ratioP1;P1;durP2;ratioP2;P2;SDS_P1;SDS_P2;PMS_P1;PMS_P2;Temp;Humidity;BMP_temperature;BMP_pressure;BME280_temperature;BME280_humidity;BME280_pressure;Samples;Min_cycle;Max_cycle;Signal;HPM_P1;HPM_P2
2023/05/30 00:02:19;;;;;;;13.23;2.75;;;;;;;9.66;100.00;102536.53;5054240;28;20599;-64
2023/05/30 00:04:47;;;;;;;13.65;2.53;;;;;;;9.59;100.00;102531.47;5052203;28;20106;-63
2023/05/30 00:07:17;;;;;;;12.60;2.50;;;;;;;9.53;100.00;102526.47;5050397;28;20362;-62
2023/05/30 00:09:46;;;;;;;15.10;2.85;;;;;;;9.54;100.00;102532.56;5049650;28;20053;-64
2023/05/30 00:12:16;;;;;;;17.77;2.83;;;;;;;9.51;100.00;102536.13;5048445;28;20076;-64
2023/05/30 00:14:47;;;;;;;12.18;2.83;;;;;;;9.34;100.00;102535.84;5049850;28;20045;-64
2023/05/30 00:17:17;;;;;;;11.15;2.83;;;;;;;9.44;100.00;102529.38;5049504;28;20061;-51
2023/05/30 00:19:46;;;;;;;14.18;2.88;;;;;;;9.26;100.00;102538.75;5049462;28;20102;-51
2023/05/30 00:22:14;;;;;;;16.90;3.00;;;;;;;9.38;100.00;102540.06;5051603;28;20041;-63
2023/05/30 00:24:42;;;;;;;13.55;2.85;;;;;;;9.38;100.00;102540.06;5052330;28;20040;-64
2023/05/30 00:27:13;;;;;;;14.63;2.60;;;;;;;9.27;100.00;102537.81;5033431;28;20053;-63
2023/05/30 00:29:41;;;;;;;17.13;3.53;;;;;;;9.21;100.00;102536.25;5031703;28;20061;-63
2023/05/30 00:32:11;;;;;;;13.90;2.72;;;;;;;9.32;100.00;102541.16;5051232;28;20036;-62
2023/05/30 00:34:39;;;;;;;16.33;3.72;;;;;;;9.25;100.00;102542.25;5050034;28;20471;-63
2023/05/30 00:37:08;;;;;;;18.38;4.05;;;;;;;9.19;100.00;102532.81;5049491;28;20396;-64
2023/05/30 00:39:37;;;;;;;10.43;2.45;;;;;;;9.23;100.00;102534.44;5049662;28;20049;-63
2023/05/30 00:42:06;;;;;;;17.50;2.95;;;;;;;9.27;100.00;102533.44;5048482;28;20052;-62
2023/05/30 00:44:35;;;;;;;14.77;2.80;;;;;;;9.22;100.00;102534.50;5050713;28;20048;-63
2023/05/30 00:47:03;;;;;;;16.85;3.60;;;;;;;9.29;100.00;102536.84;5052576;28;20041;-63
2023/05/30 00:49:34;;;;;;;12.88;3.10;;;;;;;9.24;100.00;102541.41;5052410;28;20072;-63
2023/05/30 00:52:02;;;;;;;12.90;2.97;;;;;;;9.17;100.00;102539.88;5034420;28;20504;-65
2023/05/30 00:54:31;;;;;;;11.32;2.97;;;;;;;9.17;100.00;102542.50;5049292;28;20413;-65
2023/05/30 00:56:59;;;;;;;12.95;2.85;;;;;;;9.09;100.00;102542.75;5048324;28;20045;-64
2023/05/30 00:59:27;;;;;;;15.10;2.83;;;;;;;9.01;100.00;102544.75;5048965;28;20571;-63
2023/05/30 01:01:56;;;;;;;13.48;3.05;;;;;;;9.13;100.00;102549.63;5049664;28;20044;-49
2023/05/30 01:04:24;;;;;;;17.95;3.25;;;;;;;9.13;100.00;102547.00;5051351;28;20044;-50
2023/05/30 01:06:54;;;;;;;15.48;2.88;;;;;;;9.16;100.00;102543.41;5051470;28;20052;-50
2023/05/30 01:09:23;;;;;;;12.55;3.45;;;;;;;9.13;100.00;102546.13;5007251;28;1163830;-50
2023/05/30 01:12:01;;;;;;;9.57;2.92;;;;;;;9.12;100.00;102537.41;5048918;28;20519;-51
2023/05/30 01:14:40;;;;;;;14.23;2.72;;;;;;;9.24;100.00;102549.28;5049603;28;20047;-52
2023/05/30 01:17:17;;;;;;;15.57;2.72;;;;;;;9.30;100.00;102548.22;5049677;28;20052;-53
2023/05/30 01:19:59;;;;;;;13.15;2.88;;;;;;;9.21;100.00;102544.13;5049527;28;20591;-51
2023/05/30 01:22:39;;;;;;;13.68;2.95;;;;;;;9.27;100.00;102550.94;5049137;28;20157;-54
2023/05/30 01:25:22;;;;;;;10.50;2.75;;;;;;;9.35;100.00;102554.16;5049777;28;20040;-53
2023/05/30 01:28:21;;;;;;;14.15;2.80;;;;;;;9.27;100.00;102556.19;5051961;28;20049;-52
2023/05/30 01:30:50;;;;;;;13.85;3.28;;;;;;;9.19;100.00;102551.19;5041149;28;20507;-52
2023/05/30 01:33:20;;;;;;;18.17;3.20;;;;;;;9.21;100.00;102557.25;5049468;28;20049;-50
2023/05/30 01:35:50;;;;;;;16.08;2.85;;;;;;;9.01;100.00;102551.78;5051417;28;20059;-53
2023/05/30 01:38:19;;;;;;;14.95;3.47;;;;;;;9.17;100.00;102555.63;5049197;28;20049;-50
2023/05/30 01:40:50;;;;;;;20.33;3.63;;;;;;;9.12;100.00;102560.16;5049037;28;20041;-51
2023/05/30 01:43:39;;;;;;;17.92;3.45;;;;;;;9.16;100.00;102553.06;5048683;28;20041;-51
2023/05/30 01:46:16;;;;;;;12.10;3.13;;;;;;;9.17;100.00;102554.78;5049406;28;20045;-51
2023/05/30 01:48:55;;;;;;;12.18;2.70;;;;;;;9.16;100.00;102558.31;5048784;28;20106;-64
2023/05/30 01:51:30;;;;;;;19.05;4.05;;;;;;;9.17;100.00;102563.50;5048828;28;20495;-64
2023/05/30 01:54:02;;;;;;;16.02;3.25;;;;;;;9.16;100.00;102569.66;5051295;28;20087;-63
2023/05/30 01:56:33;;;;;;;14.73;3.00;;;;;;;9.22;100.00;102566.00;5052172;28;20131;-64
2023/05/30 01:59:06;;;;;;;13.48;2.78;;;;;;;9.24;100.00;102570.28;5049092;28;20095;-64
2023/05/30 02:01:35;;;;;;;;;;;;;;;9.33;100.00;102570.91;5049751;28;20052;-64
2023/05/30 02:04:03;;;;;;;13.02;3.13;;;;;;;9.32;100.00;102569.19;5050840;28;19921;-64
2023/05/30 02:06:32;;;;;;;12.77;3.00;;;;;;;9.20;100.00;102567.78;5049757;28;20132;-64
2023/05/30 02:09:00;;;;;;;12.90;3.08;;;;;;;9.17;100.00;102570.53;5048534;28;20127;-65
2023/05/30 02:11:28;;;;;;;16.33;3.53;;;;;;;9.29;100.00;102570.97;5050557;28;20064;-63
2023/05/30 02:13:57;;;;;;;16.42;3.33;;;;;;;9.27;100.00;102569.31;5049116;28;20053;-50
2023/05/30 02:16:27;;;;;;;21.05;3.38;;;;;;;9.29;100.00;102573.59;5048795;28;20049;-64
2023/05/30 02:18:55;;;;;;;15.23;3.83;;;;;;;9.38;100.00;102576.84;5048905;28;20044;-65
2023/05/30 02:21:26;;;;;;;13.98;3.28;;;;;;;9.26;100.00;102576.34;5051670;28;20419;-62
2023/05/30 02:23:55;;;;;;;22.92;3.53;;;;;;;9.26;100.00;102578.13;5053334;28;20045;-63
2023/05/30 02:26:23;;;;;;;19.58;3.10;;;;;;;9.33;100.00;102581.41;5056041;28;20037;-63
2023/05/30 02:28:51;;;;;;;13.23;3.35;;;;;;;9.27;100.00;102580.69;5055946;28;20041;-64
2023/05/30 02:31:19;;;;;;;12.60;4.18;;;;;;;9.38;100.00;102587.34;5053996;28;20060;-64
2023/05/30 02:33:49;;;;;;;16.80;3.17;;;;;;;9.34;100.00;102585.72;5053011;28;20044;-64
2023/05/30 02:36:17;;;;;;;14.27;3.25;;;;;;;9.40;100.00;102578.50;5052298;28;20375;-63
2023/05/30 02:38:45;;;;;;;13.13;3.55;;;;;;;9.47;100.00;102582.69;5052676;28;20052;-64
2023/05/30 02:41:13;;;;;;;15.43;3.25;;;;;;;9.43;100.00;102588.91;5051553;28;20045;-64
2023/05/30 02:43:41;;;;;;;14.52;3.67;;;;;;;9.43;100.00;102593.31;5052042;28;20045;-63
2023/05/30 02:46:09;;;;;;;15.23;3.88;;;;;;;9.41;100.00;102592.53;5052331;28;20136;-63
2023/05/30 02:48:38;;;;;;;9.50;3.08;;;;;;;9.42;100.00;102583.72;5052584;28;20045;-63
2023/05/30 02:51:07;;;;;;;17.05;3.67;;;;;;;9.42;100.00;102596.84;5052649;28;20500;-63
2023/05/30 02:53:35;;;;;;;19.08;3.70;;;;;;;9.42;100.00;102594.22;5052547;28;20045;-63
2023/05/30 02:56:04;;;;;;;12.98;3.08;;;;;;;9.45;100.00;102591.50;5051999;28;20053;-51
2023/05/30 02:58:34;;;;;;;13.63;3.75;;;;;;;9.51;100.00;102590.44;5052251;28;20053;-52
2023/05/30 03:01:03;;;;;;;13.93;3.75;;;;;;;9.51;100.00;102596.56;5052682;28;20056;-51
2023/05/30 03:03:31;;;;;;;15.57;3.63;;;;;;;9.44;100.00;102589.78;5052040;28;20174;-51
2023/05/30 03:06:01;;;;;;;12.27;3.30;;;;;;;9.50;100.00;102594.81;5055222;28;20488;-51
2023/05/30 03:08:33;;;;;;;11.45;3.65;;;;;;;9.53;100.00;102594.75;5053261;28;20057;-49
2023/05/30 03:11:01;;;;;;;16.40;3.83;;;;;;;9.54;100.00;102593.81;5051611;28;20072;-52
2023/05/30 03:13:29;;;;;;;11.95;3.58;;;;;;;9.58;100.00;102595.44;5051205;28;20044;-52
2023/05/30 03:15:57;;;;;;;15.65;4.10;;;;;;;9.64;100.00;102595.25;5052471;28;20045;-51
2023/05/30 03:18:26;;;;;;;13.32;3.67;;;;;;;9.58;100.00;102598.06;5051461;28;20045;-52
2023/05/30 03:20:54;;;;;;;16.30;4.00;;;;;;;9.57;100.00;102599.00;5052788;28;20067;-52
2023/05/30 03:23:22;;;;;;;19.38;3.65;;;;;;;9.53;100.00;102602.63;5053048;28;20561;-52
2023/05/30 03:25:52;;;;;;;11.38;3.60;;;;;;;9.60;100.00;102593.63;5051227;28;20041;-50
2023/05/30 03:28:20;;;;;;;17.13;4.20;;;;;;;9.60;100.00;102596.25;5051088;28;20392;-53
2023/05/30 03:30:48;;;;;;;13.75;3.67;;;;;;;9.62;100.00;102597.03;5054797;28;20068;-51
2023/05/30 03:33:16;;;;;;;14.93;3.72;;;;;;;9.72;100.00;102594.13;5054128;28;20099;-48
2023/05/30 03:35:47;;;;;;;17.02;4.18;;;;;;;9.73;100.00;102596.69;5053553;28;20041;-52
2023/05/30 03:38:15;;;;;;;15.43;3.88;;;;;;;9.62;100.00;102590.94;5051574;28;20052;-52
2023/05/30 03:40:46;;;;;;;17.40;4.20;;;;;;;9.70;100.00;102599.44;5051389;28;20080;-50
2023/05/30 03:43:19;;;;;;;11.80;3.50;;;;;;;9.74;100.00;102592.31;5051773;28;20542;-51
2023/05/30 03:45:47;;;;;;;11.55;4.25;;;;;;;9.68;100.00;102597.75;5053379;28;20072;-51
2023/05/30 03:48:15;;;;;;;16.23;4.25;;;;;;;9.70;100.00;102596.78;5051362;28;20553;-49
2023/05/30 03:50:43;;;;;;;13.15;3.65;;;;;;;9.72;100.00;102600.25;5035746;28;20053;-50
2023/05/30 03:53:11;;;;;;;14.32;3.58;;;;;;;9.77;100.00;102610.59;5054424;28;20045;-52
2023/05/30 03:55:40;;;;;;;14.82;3.75;;;;;;;9.81;100.00;102597.28;5054402;28;20041;-50
2023/05/30 03:58:11;;;;;;;13.60;3.55;;;;;;;9.71;100.00;102605.56;5053080;28;20534;-52
2023/05/30 04:00:40;;;;;;;14.48;3.60;;;;;;;9.78;100.00;102607.06;5051517;28;20048;-50
2023/05/30 04:03:09;;;;;;;12.77;3.85;;;;;;;9.78;100.00;102604.44;5052944;28;20051;-49
2023/05/30 04:05:37;;;;;;;16.40;4.13;;;;;;;9.81;100.00;102604.31;5050841;28;20037;-50
2023/05/30 04:08:06;;;;;;;14.43;3.90;;;;;;;9.84;100.00;102604.22;5050540;28;20196;-49
2023/05/30 04:10:34;;;;;;;10.68;3.60;;;;;;;9.80;100.00;102607.84;5054144;28;20128;-50
2023/05/30 04:13:02;;;;;;;12.43;4.13;;;;;;;9.84;100.00;102601.56;5054152;28;20045;-51
2023/05/30 04:15:30;;;;;;;14.48;4.00;;;;;;;9.87;100.00;102598.88;5051903;28;20446;-50
2023/05/30 04:18:01;;;;;;;13.25;3.70;;;;;;;9.93;100.00;102603.06;5050935;28;20102;-51
2023/05/30 04:20:29;;;;;;;13.20;4.00;;;;;;;9.78;100.00;102607.06;5050239;28;20492;-53
2023/05/30 04:23:00;;;;;;;13.23;4.30;;;;;;;9.84;100.00;102604.22;5051364;28;20045;-53
2023/05/30 04:25:30;;;;;;;15.63;4.57;;;;;;;9.90;100.00;102614.53;5052507;28;20515;-52
2023/05/30 04:27:58;;;;;;;12.20;4.47;;;;;;;9.87;100.00;102614.63;5049525;28;20131;-51
2023/05/30 04:30:28;;;;;;;11.38;4.13;;;;;;;9.92;100.00;102611.84;5052747;28;20419;-51
2023/05/30 04:32:56;;;;;;;12.35;4.20;;;;;;;9.95;100.00;102609.97;5053320;28;20500;-49
2023/05/30 04:35:25;;;;;;;10.25;3.85;;;;;;;9.88;100.00;102608.44;5049932;28;20040;-46
2023/05/30 04:37:55;;;;;;;13.90;4.15;;;;;;;9.93;100.00;102606.53;5032555;28;20057;-52
2023/05/30 04:40:25;;;;;;;15.45;4.72;;;;;;;9.94;100.00;102610.88;5050026;28;20041;-52
2023/05/30 04:42:53;;;;;;;13.45;3.92;;;;;;;10.03;100.00;102609.69;5049277;28;20049;-52
2023/05/30 04:45:28;;;;;;;18.80;4.72;;;;;;;10.03;100.00;102614.09;5052499;28;20514;-64
2023/05/30 04:47:56;;;;;;;14.98;4.15;;;;;;;10.05;100.00;102617.53;5053254;28;20083;-64
2023/05/30 04:50:26;;;;;;;12.40;4.03;;;;;;;10.06;100.00;102614.00;5053158;28;20420;-64
2023/05/30 04:52:54;;;;;;;12.00;4.28;;;;;;;10.07;100.00;102615.72;5053105;28;20045;-64
2023/05/30 04:55:23;;;;;;;13.85;3.78;;;;;;;10.10;100.00;102613.84;5050827;28;20037;-64
2023/05/30 04:57:51;;;;;;;12.32;4.30;;;;;;;10.16;100.00;102610.13;5048894;28;20057;-63
2023/05/30 05:00:21;;;;;;;8.88;3.42;;;;;;;10.23;100.00;102616.03;5050534;28;20045;-63
2023/05/30 05:02:51;;;;;;;19.52;4.60;;;;;;;10.21;100.00;102613.47;5053030;28;20049;-64
2023/05/30 05:05:19;;;;;;;10.98;3.85;;;;;;;10.19;100.00;102615.28;5051801;28;20055;-51
2023/05/30 05:07:51;;;;;;;13.63;4.22;;;;;;;10.21;100.00;102613.47;5050081;28;20527;-64
2023/05/30 05:10:19;;;;;;;14.05;4.65;;;;;;;10.34;100.00;102620.91;5049379;28;20061;-52
2023/05/30 05:12:48;;;;;;;11.57;3.88;;;;;;;10.39;100.00;102626.88;5049137;28;20436;-51
2023/05/30 05:15:16;;;;;;;17.52;4.15;;;;;;;10.37;100.00;102623.47;5051620;28;20106;-64
2023/05/30 05:17:44;;;;;;;14.70;4.20;;;;;;;10.45;100.00;102627.53;5031737;28;20061;-63
2023/05/30 05:20:15;;;;;;;12.57;4.20;;;;;;;10.46;100.00;102616.09;5048906;28;20128;-48
2023/05/30 05:22:43;;;;;;;10.80;4.10;;;;;;;10.56;100.00;102610.50;5049641;28;20549;-51
2023/05/30 05:25:12;;;;;;;12.38;3.92;;;;;;;10.55;100.00;102607.03;5049027;28;20495;-51
2023/05/30 05:27:42;;;;;;;13.15;3.70;;;;;;;10.64;100.00;102616.34;5049126;28;20082;-63
2023/05/30 05:30:11;;;;;;;10.90;4.68;;;;;;;10.65;100.00;102624.16;5052530;28;20049;-50
2023/05/30 05:32:40;;;;;;;11.98;4.03;;;;;;;10.67;100.00;102616.22;5050895;28;20045;-50
2023/05/30 05:35:09;;;;;;;17.38;3.90;;;;;;;10.65;100.00;102618.91;5048693;28;20053;-51
2023/05/30 05:37:38;;;;;;;12.88;4.28;;;;;;;10.73;100.00;102617.75;5049620;28;20072;-48
2023/05/30 05:40:08;;;;;;;17.38;4.68;;;;;;;10.78;100.00;102618.44;5049772;28;20112;-52
2023/05/30 05:42:38;;;;;;;12.20;4.10;;;;;;;10.81;100.00;102624.47;5048659;28;20072;-50
2023/05/30 05:45:07;;;;;;;12.77;4.13;;;;;;;10.85;100.00;102625.19;5049526;28;20052;-49
2023/05/30 05:47:35;;;;;;;12.60;3.95;;;;;;;10.90;100.00;102625.03;5049403;28;20052;-51
2023/05/30 05:50:04;;;;;;;14.60;4.47;;;;;;;10.89;100.00;102626.78;5049566;28;20127;-48
2023/05/30 05:52:32;;;;;;;16.13;4.88;;;;;;;10.94;100.00;102626.63;5051941;28;20052;-50
2023/05/30 05:55:01;;;;;;;13.75;4.57;;;;;;;10.98;100.00;102629.06;5051485;28;20053;-63
2023/05/30 05:57:29;;;;;;;12.25;4.22;;;;;;;11.09;100.00;102626.00;5050002;28;20049;-48
2023/05/30 05:59:59;;;;;;;11.75;3.92;;;;;;;11.01;100.00;102630.72;5048961;28;20128;-50
2023/05/30 06:02:27;;;;;;;8.55;3.67;;;;;;;11.10;100.00;102630.38;5048592;28;20353;-49
2023/05/30 06:04:58;;;;;;;11.43;4.30;;;;;;;11.16;100.00;102637.16;5048369;28;20502;-50
2023/05/30 06:07:29;;;;;;;11.70;4.55;;;;;;;11.14;100.00;102637.22;5048409;28;20395;-51
2023/05/30 06:09:57;;;;;;;13.73;5.20;;;;;;;11.23;100.00;102646.53;5047566;28;20080;-52
2023/05/30 06:12:25;;;;;;;9.82;3.90;;;;;;;11.22;100.00;102638.69;5047821;28;20573;-51
2023/05/30 06:14:56;;;;;;;11.98;4.13;;;;;;;11.39;100.00;102643.31;5048983;28;20065;-54
2023/05/30 06:17:25;;;;;;;11.95;4.07;;;;;;;11.40;100.00;102637.09;5048413;28;20049;-53
2023/05/30 06:19:57;;;;;;;12.15;4.53;;;;;;;11.38;100.00;102628.41;5049106;28;20072;-52
2023/05/30 06:22:25;;;;;;;15.40;3.95;;;;;;;11.55;100.00;102630.34;5048444;28;20441;-53
2023/05/30 06:24:53;;;;;;;11.75;3.92;;;;;;;11.53;100.00;102632.22;5048900;28;20041;-52
2023/05/30 06:27:21;;;;;;;14.73;4.32;;;;;;;11.33;100.00;102632.09;5047186;28;20076;-48
2023/05/30 06:29:49;;;;;;;14.23;4.28;;;;;;;11.47;100.00;102633.31;5031217;28;20048;-50
2023/05/30 06:32:17;;;;;;;14.85;4.35;;;;;;;11.59;100.00;102635.47;5051282;28;20040;-51
2023/05/30 06:34:47;;;;;;;15.65;4.53;;;;;;;11.73;100.00;102629.59;5048817;28;20088;-50
2023/05/30 06:37:15;;;;;;;11.27;3.95;;;;;;;11.82;100.00;102631.00;5048193;28;20037;-53
2023/05/30 06:39:43;;;;;;;13.95;4.22;;;;;;;11.91;100.00;102643.78;5048746;28;20059;-50
2023/05/30 06:42:14;;;;;;;11.85;4.43;;;;;;;11.90;100.00;102642.09;5047507;28;20500;-52
2023/05/30 06:44:45;;;;;;;13.80;3.90;;;;;;;11.97;100.00;102642.69;5048887;28;20052;-51
2023/05/30 06:47:13;;;;;;;13.25;4.85;;;;;;;12.09;100.00;102643.97;5048518;28;20127;-51
2023/05/30 06:49:44;;;;;;;11.43;4.00;;;;;;;12.21;100.00;102646.06;5048214;28;20048;-52
2023/05/30 06:52:13;;;;;;;13.57;4.72;;;;;;;12.15;100.00;102641.09;5048719;28;20423;-50
2023/05/30 06:54:41;;;;;;;12.07;4.18;;;;;;;12.09;100.00;102643.97;5051265;28;20048;-49
2023/05/30 06:57:12;;;;;;;14.48;5.30;;;;;;;12.11;100.00;102645.63;5047685;28;20068;-49
2023/05/30 06:59:40;;;;;;;12.60;4.20;;;;;;;12.26;100.00;102637.97;5049819;28;20051;-51
2023/05/30 07:02:10;;;;;;;14.43;4.65;;;;;;;12.25;100.00;102657.34;5051751;28;20114;-51
2023/05/30 07:04:38;;;;;;;10.55;4.05;;;;;;;12.32;100.00;102653.53;5050247;28;20131;-50
2023/05/30 07:07:07;;;;;;;12.32;4.50;;;;;;;12.32;100.00;102646.47;5054009;28;20518;-62
2023/05/30 07:09:37;;;;;;;12.10;4.20;;;;;;;12.26;100.00;102653.81;5051625;28;20084;-63
2023/05/30 07:12:06;;;;;;;12.73;4.32;;;;;;;12.35;100.00;102653.38;5051238;28;20056;-49
2023/05/30 07:14:34;;;;;;;11.38;4.15;;;;;;;12.32;100.00;102651.75;5052256;28;20037;-53
2023/05/30 07:17:04;;;;;;;10.23;4.03;;;;;;;12.39;100.00;102648.84;5052294;28;20045;-63
2023/05/30 07:19:33;;;;;;;12.00;4.10;;;;;;;12.50;100.00;102650.09;5051707;28;20045;-64
2023/05/30 07:22:01;;;;;;;10.20;3.70;;;;;;;12.50;100.00;102651.84;5051750;28;20140;-51
2023/05/30 07:24:29;;;;;;;14.23;4.57;;;;;;;12.50;100.00;102651.84;5051601;28;20503;-63
2023/05/30 07:26:59;;;;;;;10.25;3.85;;;;;;;12.56;100.00;102651.59;5050404;28;20075;-63
2023/05/30 07:29:27;;;;;;;10.88;3.85;;;;;;;12.68;100.00;102651.03;5051825;28;20626;-63
2023/05/30 07:31:56;;;;;;;11.63;4.20;;;;;;;12.62;100.00;102651.28;5052068;28;20041;-52
2023/05/30 07:34:27;;;;;;;13.88;5.03;;;;;;;12.73;100.00;102653.44;5051551;28;20053;-64
2023/05/30 07:36:55;;;;;;;12.85;4.47;;;;;;;13.02;100.00;102646.84;5053749;28;20048;-50
2023/05/30 07:39:24;;;;;;;10.20;4.00;;;;;;;13.33;100.00;102648.03;5051696;28;20091;-49
2023/05/30 07:41:52;;;;;;;11.38;4.55;;;;;;;13.51;100.00;102653.34;5032315;28;20053;-53
2023/05/30 07:44:21;;;;;;;10.55;3.78;;;;;;;13.44;100.00;102654.59;5051702;28;20128;-64
2023/05/30 07:46:50;;;;;;;12.13;4.00;;;;;;;13.45;100.00;102651.03;5051846;28;20071;-63
2023/05/30 07:49:21;;;;;;;13.55;5.00;;;;;;;13.60;100.00;102652.06;5051829;28;20447;-50
2023/05/30 07:51:49;;;;;;;15.52;4.97;;;;;;;13.94;100.00;102664.44;5053309;28;20045;-64
2023/05/30 07:54:18;;;;;;;9.35;3.90;;;;;;;14.22;100.00;102657.75;5051388;28;20063;-50
2023/05/30 07:56:46;;;;;;;14.88;4.57;;;;;;;14.32;100.00;102653.69;5050889;28;20045;-49
2023/05/30 07:59:14;;;;;;;12.35;3.78;;;;;;;14.40;98.83;102652.41;5051556;28;20100;-49
2023/05/30 08:01:45;;;;;;;12.40;3.92;;;;;;;14.47;97.81;102648.53;5051514;28;20110;-53
2023/05/30 08:04:13;;;;;;;11.05;4.30;;;;;;;14.58;98.06;102661.19;5050691;28;20053;-50
2023/05/30 08:06:41;;;;;;;13.57;4.20;;;;;;;14.74;97.00;102655.94;5051343;28;20036;-53
2023/05/30 08:09:11;;;;;;;12.50;4.25;;;;;;;14.70;97.03;102650.81;5050753;28;20049;-50
2023/05/30 08:11:40;;;;;;;14.95;4.45;;;;;;;14.83;97.05;102652.78;5048974;28;20484;-50
2023/05/30 08:14:08;;;;;;;12.15;4.38;;;;;;;14.94;95.99;102649.56;5032846;28;20447;-53
2023/05/30 08:16:36;;;;;;;13.07;4.60;;;;;;;15.07;94.48;102645.28;5051505;28;20132;-54
2023/05/30 08:19:06;;;;;;;11.27;3.95;;;;;;;14.91;94.45;102649.75;5049827;28;20053;-54
2023/05/30 08:21:36;;;;;;;11.57;4.22;;;;;;;15.03;95.63;102644.59;5050885;28;20072;-51
2023/05/30 08:24:07;;;;;;;14.00;4.32;;;;;;;14.83;95.82;102653.66;5050746;28;20048;-51
2023/05/30 08:26:39;;;;;;;11.23;3.97;;;;;;;14.99;95.17;102643.06;5050180;28;20041;-54
2023/05/30 08:29:08;;;;;;;10.87;4.20;;;;;;;15.17;93.06;102640.31;5033404;28;20461;-53
2023/05/30 08:31:37;;;;;;;9.85;3.67;;;;;;;15.44;93.42;102643.22;5052214;28;20033;-51
2023/05/30 08:34:06;;;;;;;10.95;4.22;;;;;;;15.70;94.24;102638.19;5050542;28;20056;-51
2023/05/30 08:36:35;;;;;;;13.38;4.45;;;;;;;15.96;91.71;102639.31;5052670;28;20045;-53
2023/05/30 08:39:03;;;;;;;10.57;3.85;;;;;;;16.07;87.17;102641.34;5053292;28;20496;-53
2023/05/30 08:41:34;;;;;;;10.77;3.55;;;;;;;16.32;88.80;102630.09;5053320;28;20037;-53
2023/05/30 08:44:03;;;;;;;16.77;4.30;;;;;;;16.31;86.26;102628.38;5053386;28;20045;-53
2023/05/30 08:46:32;;;;;;;8.80;4.57;;;;;;;16.51;88.97;102626.28;5053401;28;20072;-53
2023/05/30 08:49:01;;;;;;;11.32;4.00;;;;;;;16.78;82.72;102622.84;5050648;28;20099;-51
2023/05/30 08:51:31;;;;;;;12.80;4.55;;;;;;;16.83;81.05;102621.59;5049887;28;20048;-50
2023/05/30 08:54:06;;;;;;;14.48;4.35;;;;;;;16.97;81.44;102626.06;5050228;28;20068;-54
2023/05/30 08:56:40;;;;;;;11.45;3.85;;;;;;;17.14;80.91;102617.00;5048909;28;20045;-52
2023/05/30 08:59:10;;;;;;;11.50;4.00;;;;;;;17.40;79.98;102620.59;5049780;28;20045;-54
2023/05/30 09:01:40;;;;;;;11.60;3.90;;;;;;;17.36;77.42;102613.78;5052540;28;20052;-52
2023/05/30 09:04:09;;;;;;;10.40;3.92;;;;;;;17.50;78.55;102609.38;5053270;28;20095;-53
2023/05/30 09:06:40;;;;;;;12.60;3.92;;;;;;;17.85;77.72;102616.78;5053113;28;20056;-52
2023/05/30 09:09:13;;;;;;;11.63;3.50;;;;;;;17.85;77.69;102606.13;5050669;28;20061;-52
2023/05/30 09:11:43;;;;;;;9.38;4.18;;;;;;;18.13;75.42;102612.25;5049844;28;20053;-53
2023/05/30 09:14:11;;;;;;;13.00;3.95;;;;;;;18.22;74.42;102615.09;5052547;28;20045;-53
2023/05/30 09:16:39;;;;;;;12.45;4.63;;;;;;;18.35;72.65;102599.13;5052521;28;20052;-53
2023/05/30 09:19:07;;;;;;;12.45;4.20;;;;;;;18.52;72.00;102600.59;5049924;28;20530;-48
2023/05/30 09:21:37;;;;;;;11.85;4.10;;;;;;;18.72;73.18;102596.50;5051195;28;20102;-52
2023/05/30 09:24:06;;;;;;;13.15;4.55;;;;;;;19.14;73.13;102592.63;5050403;28;20045;-54
2023/05/30 09:26:35;;;;;;;11.23;3.70;;;;;;;19.23;67.24;102590.13;5048781;28;20477;-53
2023/05/30 09:29:10;;;;;;;12.23;4.75;;;;;;;19.33;67.62;102584.94;5049213;28;20040;-54
2023/05/30 09:31:38;;;;;;;12.18;3.85;;;;;;;19.47;69.05;102586.59;5052466;28;20045;-64
2023/05/30 09:34:06;;;;;;;12.10;3.45;;;;;;;19.59;67.40;102582.13;5052436;28;20475;-64
2023/05/30 09:36:35;;;;;;;10.88;3.92;;;;;;;19.66;66.50;102582.50;5052436;28;20059;-65
2023/05/30 09:39:05;;;;;;;8.60;3.17;;;;;;;19.59;66.45;102592.81;5052478;28;20037;-65
2023/05/30 09:41:34;;;;;;;12.95;4.70;;;;;;;19.79;65.63;102579.75;5052366;28;20051;-65
2023/05/30 09:44:05;;;;;;;11.75;3.72;;;;;;;19.75;63.92;102579.13;5051462;28;20045;-64
2023/05/30 09:46:35;;;;;;;10.93;3.78;;;;;;;20.02;64.17;102575.34;5047976;28;20045;-65
2023/05/30 09:49:12;;;;;;;10.30;3.55;;;;;;;20.11;64.17;102571.94;5048692;28;20492;-64
2023/05/30 09:51:42;;;;;;;8.45;3.42;;;;;;;20.25;62.46;102565.50;5049192;28;20573;-64
2023/05/30 09:54:14;;;;;;;10.40;3.53;;;;;;;20.41;61.74;102560.63;5051399;28;20488;-55
2023/05/30 09:56:43;;;;;;;10.07;3.43;;;;;;;20.33;61.79;102559.53;5048311;28;20053;-65
2023/05/30 09:59:13;;;;;;;10.73;3.92;;;;;;;20.47;60.54;102556.63;5048442;28;20068;-65
2023/05/30 10:01:44;;;;;;;10.15;3.30;;;;;;;20.79;62.00;102552.31;5050803;28;20045;-65
2023/05/30 10:04:16;;;;;;;10.80;3.63;;;;;;;20.72;61.70;102552.84;5051150;28;20045;-65
2023/05/30 10:06:45;;;;;;;;;;;;;;;20.83;62.09;102556.44;5049904;28;20404;-65
2023/05/30 10:09:15;;;;;;;10.32;3.28;;;;;;;20.87;59.28;102560.56;5048470;28;19920;-64
2023/05/30 10:11:44;;;;;;;10.68;3.75;;;;;;;21.06;58.98;102563.41;5050426;28;20504;-64
2023/05/30 10:14:13;;;;;;;9.65;3.30;;;;;;;21.04;59.29;102552.00;5049128;28;20045;-64
2023/05/30 10:16:47;;;;;;;12.95;4.22;;;;;;;21.20;58.78;102556.06;5048931;28;20041;-64
2023/05/30 10:19:18;;;;;;;10.70;3.85;;;;;;;21.42;57.97;102550.59;5048517;28;20049;-65
2023/05/30 10:21:47;;;;;;;10.57;4.00;;;;;;;21.65;55.58;102553.19;5050115;28;20051;-65
2023/05/30 10:24:19;;;;;;;10.13;3.67;;;;;;;21.74;56.72;102557.72;5050248;28;20080;-57
2023/05/30 10:26:52;;;;;;;9.15;3.65;;;;;;;21.83;54.21;102556.09;5047794;28;20087;-64
2023/05/30 10:29:23;;;;;;;10.23;3.80;;;;;;;21.87;54.85;102556.66;5030501;28;20077;-63
2023/05/30 10:31:54;;;;;;;12.75;3.70;;;;;;;21.72;53.80;102549.00;5049091;28;20099;-54
2023/05/30 10:34:32;;;;;;;11.25;3.60;;;;;;;22.05;56.53;102540.84;5029797;28;20055;-56
2023/05/30 10:37:01;;;;;;;14.07;3.55;;;;;;;22.26;56.66;102549.66;5048355;28;20045;-56
2023/05/30 10:39:37;;;;;;;12.30;3.80;;;;;;;22.45;55.82;102554.28;5048202;28;20041;-54
2023/05/30 10:42:12;;;;;;;10.93;4.55;;;;;;;22.34;53.75;102550.81;5032207;28;20059;-56
2023/05/30 10:44:55;;;;;;;11.48;3.50;;;;;;;22.51;53.84;102543.97;5034777;28;20049;-53
2023/05/30 10:47:34;;;;;;;9.23;3.97;;;;;;;22.56;53.19;102531.00;5052392;28;20041;-56
2023/05/30 10:50:08;;;;;;;11.15;3.72;;;;;;;22.67;52.32;102536.22;5051933;28;20134;-55
2023/05/30 10:52:36;;;;;;;11.23;4.07;;;;;;;22.72;51.23;102533.97;5055885;28;20111;-56
2023/05/30 10:55:10;;;;;;;11.35;3.80;;;;;;;23.27;51.64;102538.84;5053772;28;20036;-56
2023/05/30 10:57:38;;;;;;;12.05;3.53;;;;;;;23.28;52.42;102545.03;5051093;28;20048;-56
2023/05/30 11:00:18;;;;;;;11.55;3.97;;;;;;;23.38;49.76;102540.50;5036124;28;20037;-57
2023/05/30 11:02:51;;;;;;;11.32;4.20;;;;;;;23.32;47.30;102527.66;5055025;28;20495;-57
2023/05/30 11:05:23;;;;;;;10.35;4.20;;;;;;;23.30;46.88;102537.66;5055472;28;20053;-57
2023/05/30 11:07:51;;;;;;;9.80;3.85;;;;;;;23.17;48.23;102532.63;5053550;28;20059;-56
2023/05/30 11:10:27;;;;;;;11.85;4.30;;;;;;;23.14;49.49;102524.84;5051815;28;20444;-56
2023/05/30 11:13:07;;;;;;;12.57;4.78;;;;;;;22.85;49.43;102527.50;5050867;28;20077;-56
2023/05/30 11:15:42;;;;;;;9.95;4.45;;;;;;;23.30;50.15;102524.25;5052974;28;20059;-56
2023/05/30 11:18:18;;;;;;;9.77;4.38;;;;;;;23.61;47.82;102524.06;5053399;28;20036;-56
2023/05/30 11:20:51;;;;;;;11.00;4.32;;;;;;;23.80;48.46;102515.94;5051583;28;20091;-55
2023/05/30 11:23:21;;;;;;;10.90;4.57;;;;;;;23.91;47.26;102514.09;5051911;28;20076;-56
2023/05/30 11:25:53;;;;;;;13.52;4.82;;;;;;;24.17;47.63;102513.41;5053611;28;20103;-57
2023/05/30 11:28:34;;;;;;;12.20;4.40;;;;;;;24.03;47.78;102520.13;5050796;28;20037;-56
2023/05/30 11:31:16;;;;;;;12.30;4.07;;;;;;;23.90;47.89;102517.75;5051745;28;20127;-56